sensor_id;sensor_type;location;lat;lon;timestamp;temperature;humidity
39453;DHT22;25154;-33.684;151.102;2023-03-04T00:05:00;24.50;99.90
39453;DHT22;25154;-33.684;151.102;2023-03-04T00:10:04;24.30;99.90
39453;DHT22;25154;-33.684;151.102;2023-03-04T00:15:07;24.40;99.90
39453;DHT22;25154;-33.684;151.102;2023-03-04T00:20:10;24.60;99.90
39453;DHT22;25154;-33.684;151.102;2023-03-04T00:25:13;25.30;99.90
39453;DHT22;25154;-33.684;151.102;2023-03-04T00:30:16;26.20;99.90
39453;DHT22;25154;-33.684;151.102;2023-03-04T00:35:18;26.80;99.90
39453;DHT22;25154;-33.684;151.102;2023-03-04T00:40:20;26.90;99.90
39453;DHT22;25154;-33.684;151.102;2023-03-04T00:45:23;27.00;99.90
39453;DHT22;25154;-33.684;151.102;2023-03-04T00:50:26;26.80;99.90
39453;DHT22;25154;-33.684;151.102;2023-03-04T00:55:29;26.70;99.90
39453;DHT22;25154;-33.684;151.102;2023-03-04T01:00:31;26.90;99.90
39453;DHT22;25154;-33.684;151.102;2023-03-04T01:05:34;27.20;99.90
39453;DHT22;25154;-33.684;151.102;2023-03-04T01:10:36;27.10;99.90
39453;DHT22;25154;-33.684;151.102;2023-03-04T01:15:38;26.30;99.90
39453;DHT22;25154;-33.684;151.102;2023-03-04T01:20:41;25.70;99.90
39453;DHT22;25154;-33.684;151.102;2023-03-04T01:25:43;23.80;99.90
39453;DHT22;25154;-33.684;151.102;2023-03-04T01:30:45;25.50;99.90
39453;DHT22;25154;-33.684;151.102;2023-03-04T01:35:48;25.90;99.90
39453;DHT22;25154;-33.684;151.102;2023-03-04T01:40:50;26.30;99.90
39453;DHT22;25154;-33.684;151.102;2023-03-04T01:45:54;26.30;99.90
39453;DHT22;25154;-33.684;151.102;2023-03-04T01:50:57;26.20;99.90
39453;DHT22;25154;-33.684;151.102;2023-03-04T01:56:14;26.20;99.90
39453;DHT22;25154;-33.684;151.102;2023-03-04T02:01:16;27.00;99.90
39453;DHT22;25154;-33.684;151.102;2023-03-04T02:06:19;26.90;99.90
39453;DHT22;25154;-33.684;151.102;2023-03-04T02:11:21;26.90;99.90
39453;DHT22;25154;-33.684;151.102;2023-03-04T02:16:24;27.20;99.90
39453;DHT22;25154;-33.684;151.102;2023-03-04T02:21:30;27.40;99.90
39453;DHT22;25154;-33.684;151.102;2023-03-04T02:26:33;27.80;99.90
39453;DHT22;25154;-33.684;151.102;2023-03-04T02:31:42;27.80;99.90
39453;DHT22;25154;-33.684;151.102;2023-03-04T02:36:46;27.60;99.90
39453;DHT22;25154;-33.684;151.102;2023-03-04T02:41:51;27.10;99.90
39453;DHT22;25154;-33.684;151.102;2023-03-04T02:46:54;27.00;99.90
39453;DHT22;25154;-33.684;151.102;2023-03-04T02:52:19;27.00;99.90
39453;DHT22;25154;-33.684;151.102;2023-03-04T02:57:22;27.00;99.90
39453;DHT22;25154;-33.684;151.102;2023-03-04T03:02:25;26.90;99.90
39453;DHT22;25154;-33.684;151.102;2023-03-04T03:07:28;27.10;99.90
39453;DHT22;25154;-33.684;151.102;2023-03-04T03:12:30;25.30;99.90
39453;DHT22;25154;-33.684;151.102;2023-03-04T03:17:32;26.30;99.90
39453;DHT22;25154;-33.684;151.102;2023-03-04T03:22:35;26.10;99.90
39453;DHT22;25154;-33.684;151.102;2023-03-04T03:27:37;25.90;99.90
39453;DHT22;25154;-33.684;151.102;2023-03-04T03:32:40;25.90;99.90
39453;DHT22;25154;-33.684;151.102;2023-03-04T03:37:42;26.00;99.90
39453;DHT22;25154;-33.684;151.102;2023-03-04T03:42:44;24.80;99.90
39453;DHT22;25154;-33.684;151.102;2023-03-04T03:47:48;26.90;99.90
39453;DHT22;25154;-33.684;151.102;2023-03-04T03:52:50;26.90;99.90
39453;DHT22;25154;-33.684;151.102;2023-03-04T03:57:53;26.80;99.90
39453;DHT22;25154;-33.684;151.102;2023-03-04T04:02:57;26.60;99.90
39453;DHT22;25154;-33.684;151.102;2023-03-04T04:08:00;26.50;99.90
39453;DHT22;25154;-33.684;151.102;2023-03-04T04:13:02;26.80;99.90
39453;DHT22;25154;-33.684;151.102;2023-03-04T04:18:05;26.70;99.90
39453;DHT22;25154;-33.684;151.102;2023-03-04T04:23:08;26.90;99.90
39453;DHT22;25154;-33.684;151.102;2023-03-04T04:28:11;27.40;99.90
39453;DHT22;25154;-33.684;151.102;2023-03-04T04:33:14;27.20;99.90
39453;DHT22;25154;-33.684;151.102;2023-03-04T04:38:16;27.00;99.90
39453;DHT22;25154;-33.684;151.102;2023-03-04T04:43:18;26.90;99.90
39453;DHT22;25154;-33.684;151.102;2023-03-04T04:48:21;27.30;99.90
39453;DHT22;25154;-33.684;151.102;2023-03-04T04:53:23;26.90;99.90
39453;DHT22;25154;-33.684;151.102;2023-03-04T04:58:25;26.90;99.90
39453;DHT22;25154;-33.684;151.102;2023-03-04T05:03:28;27.80;99.90
39453;DHT22;25154;-33.684;151.102;2023-03-04T05:08:30;29.50;99.90
39453;DHT22;25154;-33.684;151.102;2023-03-04T05:13:32;31.30;99.90
39453;DHT22;25154;-33.684;151.102;2023-03-04T05:18:35;32.50;97.30
39453;DHT22;25154;-33.684;151.102;2023-03-04T05:23:39;32.90;97.70
39453;DHT22;25154;-33.684;151.102;2023-03-04T05:28:42;33.40;94.80
39453;DHT22;25154;-33.684;151.102;2023-03-04T05:33:44;33.50;95.60
39453;DHT22;25154;-33.684;151.102;2023-03-04T05:38:46;33.50;95.30
39453;DHT22;25154;-33.684;151.102;2023-03-04T05:43:49;33.50;95.10
39453;DHT22;25154;-33.684;151.102;2023-03-04T05:48:53;34.00;94.60
39453;DHT22;25154;-33.684;151.102;2023-03-04T05:53:58;34.00;94.50
39453;DHT22;25154;-33.684;151.102;2023-03-04T05:59:00;34.20;94.20
39453;DHT22;25154;-33.684;151.102;2023-03-04T06:04:02;34.50;92.60
39453;DHT22;25154;-33.684;151.102;2023-03-04T06:09:04;33.80;92.80
39453;DHT22;25154;-33.684;151.102;2023-03-04T06:14:07;32.50;94.00
39453;DHT22;25154;-33.684;151.102;2023-03-04T06:19:09;30.90;94.80
39453;DHT22;25154;-33.684;151.102;2023-03-04T06:24:11;30.20;97.00
39453;DHT22;25154;-33.684;151.102;2023-03-04T06:29:14;30.00;96.50
39453;DHT22;25154;-33.684;151.102;2023-03-04T06:34:16;30.80;96.70
39453;DHT22;25154;-33.684;151.102;2023-03-04T06:39:18;30.50;96.40
39453;DHT22;25154;-33.684;151.102;2023-03-04T06:44:21;28.80;99.20
39453;DHT22;25154;-33.684;151.102;2023-03-04T06:49:26;29.70;99.80
39453;DHT22;25154;-33.684;151.102;2023-03-04T06:54:31;30.70;97.40
39453;DHT22;25154;-33.684;151.102;2023-03-04T06:59:34;30.90;96.90
39453;DHT22;25154;-33.684;151.102;2023-03-04T07:04:36;30.90;97.00
39453;DHT22;25154;-33.684;151.102;2023-03-04T07:09:39;31.00;97.80
39453;DHT22;25154;-33.684;151.102;2023-03-04T07:14:41;31.00;97.40
39453;DHT22;25154;-33.684;151.102;2023-03-04T07:19:44;30.40;97.30
39453;DHT22;25154;-33.684;151.102;2023-03-04T07:24:47;29.90;97.20
39453;DHT22;25154;-33.684;151.102;2023-03-04T07:29:49;28.90;99.90
39453;DHT22;25154;-33.684;151.102;2023-03-04T07:34:52;27.50;99.90
39453;DHT22;25154;-33.684;151.102;2023-03-04T07:39:55;26.20;99.90
39453;DHT22;25154;-33.684;151.102;2023-03-04T07:44:57;25.10;99.90
39453;DHT22;25154;-33.684;151.102;2023-03-04T07:50:02;24.20;99.90
39453;DHT22;25154;-33.684;151.102;2023-03-04T07:55:04;23.60;99.90
39453;DHT22;25154;-33.684;151.102;2023-03-04T08:00:08;23.10;99.90
39453;DHT22;25154;-33.684;151.102;2023-03-04T08:05:11;22.70;99.90
39453;DHT22;25154;-33.684;151.102;2023-03-04T08:10:13;22.50;99.90
39453;DHT22;25154;-33.684;151.102;2023-03-04T08:15:16;22.20;99.90
39453;DHT22;25154;-33.684;151.102;2023-03-04T08:20:18;21.90;99.90
39453;DHT22;25154;-33.684;151.102;2023-03-04T08:25:21;21.70;99.90
39453;DHT22;25154;-33.684;151.102;2023-03-04T08:30:23;21.50;99.90
39453;DHT22;25154;-33.684;151.102;2023-03-04T08:35:25;21.40;99.90
39453;DHT22;25154;-33.684;151.102;2023-03-04T08:40:28;21.20;99.90
39453;DHT22;25154;-33.684;151.102;2023-03-04T08:45:31;21.10;99.90
39453;DHT22;25154;-33.684;151.102;2023-03-04T08:50:34;20.90;99.90
39453;DHT22;25154;-33.684;151.102;2023-03-04T08:55:39;20.80;99.90
39453;DHT22;25154;-33.684;151.102;2023-03-04T09:00:44;20.60;99.90
39453;DHT22;25154;-33.684;151.102;2023-03-04T09:05:49;20.40;99.90
39453;DHT22;25154;-33.684;151.102;2023-03-04T09:10:52;20.20;99.90
39453;DHT22;25154;-33.684;151.102;2023-03-04T09:15:55;20.10;99.90
39453;DHT22;25154;-33.684;151.102;2023-03-04T09:20:58;20.00;99.90
39453;DHT22;25154;-33.684;151.102;2023-03-04T09:26:00;19.80;99.90
39453;DHT22;25154;-33.684;151.102;2023-03-04T09:31:11;19.70;99.90
39453;DHT22;25154;-33.684;151.102;2023-03-04T09:36:15;19.60;99.90
39453;DHT22;25154;-33.684;151.102;2023-03-04T09:41:34;19.50;99.90
39453;DHT22;25154;-33.684;151.102;2023-03-04T09:46:40;19.50;99.90
39453;DHT22;25154;-33.684;151.102;2023-03-04T10:03:13;19.30;99.90
39453;DHT22;25154;-33.684;151.102;2023-03-04T10:18:59;19.10;99.90
39453;DHT22;25154;-33.684;151.102;2023-03-04T10:24:15;19.00;99.90
39453;DHT22;25154;-33.684;151.102;2023-03-04T10:29:24;18.90;99.90
39453;DHT22;25154;-33.684;151.102;2023-03-04T10:34:26;18.80;99.90
39453;DHT22;25154;-33.684;151.102;2023-03-04T10:39:31;18.70;99.90
39453;DHT22;25154;-33.684;151.102;2023-03-04T10:44:34;18.60;99.90
39453;DHT22;25154;-33.684;151.102;2023-03-04T10:49:54;18.60;99.90
39453;DHT22;25154;-33.684;151.102;2023-03-04T10:55:03;18.50;99.90
39453;DHT22;25154;-33.684;151.102;2023-03-04T11:00:31;18.50;99.90
39453;DHT22;25154;-33.684;151.102;2023-03-04T11:05:33;18.50;99.90
39453;DHT22;25154;-33.684;151.102;2023-03-04T11:10:39;18.30;99.90
39453;DHT22;25154;-33.684;151.102;2023-03-04T11:15:54;18.30;99.90
39453;DHT22;25154;-33.684;151.102;2023-03-04T11:20:57;18.10;99.90
39453;DHT22;25154;-33.684;151.102;2023-03-04T11:26:12;18.20;99.90
39453;DHT22;25154;-33.684;151.102;2023-03-04T11:31:31;18.10;99.90
39453;DHT22;25154;-33.684;151.102;2023-03-04T11:42:27;18.10;99.90
39453;DHT22;25154;-33.684;151.102;2023-03-04T11:47:49;18.00;99.90
39453;DHT22;25154;-33.684;151.102;2023-03-04T12:03:43;17.80;99.90
39453;DHT22;25154;-33.684;151.102;2023-03-04T12:19:56;17.70;99.90
39453;DHT22;25154;-33.684;151.102;2023-03-04T12:30:55;17.80;99.90
39453;DHT22;25154;-33.684;151.102;2023-03-04T12:47:10;17.60;99.90
39453;DHT22;25154;-33.684;151.102;2023-03-04T12:57:34;17.60;99.90
39453;DHT22;25154;-33.684;151.102;2023-03-04T13:13:46;17.50;99.90
39453;DHT22;25154;-33.684;151.102;2023-03-04T13:19:01;17.50;99.90
39453;DHT22;25154;-33.684;151.102;2023-03-04T13:29:43;17.40;99.90
39453;DHT22;25154;-33.684;151.102;2023-03-04T13:34:48;17.30;99.90
39453;DHT22;25154;-33.684;151.102;2023-03-04T13:45:36;17.20;99.90
39453;DHT22;25154;-33.684;151.102;2023-03-04T13:50:45;17.10;99.90
39453;DHT22;25154;-33.684;151.102;2023-03-04T13:56:22;17.00;99.90
39453;DHT22;25154;-33.684;151.102;2023-03-04T14:01:30;17.00;99.90
39453;DHT22;25154;-33.684;151.102;2023-03-04T14:06:32;17.00;99.90
39453;DHT22;25154;-33.684;151.102;2023-03-04T14:11:38;16.90;99.90
39453;DHT22;25154;-33.684;151.102;2023-03-04T14:16:58;16.90;99.90
39453;DHT22;25154;-33.684;151.102;2023-03-04T14:22:01;16.80;99.90
39453;DHT22;25154;-33.684;151.102;2023-03-04T14:27:10;16.80;99.90
39453;DHT22;25154;-33.684;151.102;2023-03-04T14:32:13;16.80;99.90
39453;DHT22;25154;-33.684;151.102;2023-03-04T14:37:23;16.70;99.90
39453;DHT22;25154;-33.684;151.102;2023-03-04T14:42:36;16.60;99.90
39453;DHT22;25154;-33.684;151.102;2023-03-04T14:47:43;16.70;99.90
39453;DHT22;25154;-33.684;151.102;2023-03-04T14:52:49;16.60;99.90
39453;DHT22;25154;-33.684;151.102;2023-03-04T14:58:05;16.60;99.90
39453;DHT22;25154;-33.684;151.102;2023-03-04T15:03:25;16.60;99.90
39453;DHT22;25154;-33.684;151.102;2023-03-04T15:08:35;16.50;99.90
39453;DHT22;25154;-33.684;151.102;2023-03-04T15:13:47;16.50;99.90
39453;DHT22;25154;-33.684;151.102;2023-03-04T15:19:02;16.50;99.90
39453;DHT22;25154;-33.684;151.102;2023-03-04T15:24:08;16.40;99.90
39453;DHT22;25154;-33.684;151.102;2023-03-04T15:29:17;16.30;99.90
39453;DHT22;25154;-33.684;151.102;2023-03-04T15:34:20;16.30;99.90
39453;DHT22;25154;-33.684;151.102;2023-03-04T15:39:22;16.30;99.90
39453;DHT22;25154;-33.684;151.102;2023-03-04T15:44:25;16.20;99.90
39453;DHT22;25154;-33.684;151.102;2023-03-04T15:49:33;16.20;99.90
39453;DHT22;25154;-33.684;151.102;2023-03-04T15:54:36;16.10;99.90
39453;DHT22;25154;-33.684;151.102;2023-03-04T15:59:39;16.10;99.90
39453;DHT22;25154;-33.684;151.102;2023-03-04T16:04:42;16.10;99.90
39453;DHT22;25154;-33.684;151.102;2023-03-04T16:09:46;16.10;99.90
39453;DHT22;25154;-33.684;151.102;2023-03-04T16:15:13;16.10;99.90
39453;DHT22;25154;-33.684;151.102;2023-03-04T16:20:20;16.00;99.90
39453;DHT22;25154;-33.684;151.102;2023-03-04T16:25:24;16.00;99.90
39453;DHT22;25154;-33.684;151.102;2023-03-04T16:30:27;16.00;99.90
39453;DHT22;25154;-33.684;151.102;2023-03-04T16:35:29;15.90;99.90
39453;DHT22;25154;-33.684;151.102;2023-03-04T16:40:34;15.80;99.90
39453;DHT22;25154;-33.684;151.102;2023-03-04T16:45:38;15.70;99.90
39453;DHT22;25154;-33.684;151.102;2023-03-04T16:50:42;15.70;99.90
39453;DHT22;25154;-33.684;151.102;2023-03-04T16:55:45;15.70;99.90
39453;DHT22;25154;-33.684;151.102;2023-03-04T17:00:48;15.70;99.90
39453;DHT22;25154;-33.684;151.102;2023-03-04T17:05:51;15.70;99.90
39453;DHT22;25154;-33.684;151.102;2023-03-04T17:10:54;15.80;99.90
39453;DHT22;25154;-33.684;151.102;2023-03-04T17:16:00;15.80;99.90
39453;DHT22;25154;-33.684;151.102;2023-03-04T17:21:06;15.70;99.90
39453;DHT22;25154;-33.684;151.102;2023-03-04T17:26:09;15.70;99.90
39453;DHT22;25154;-33.684;151.102;2023-03-04T17:31:15;15.70;99.90
39453;DHT22;25154;-33.684;151.102;2023-03-04T17:36:19;15.70;99.90
39453;DHT22;25154;-33.684;151.102;2023-03-04T17:41:26;15.70;99.90
39453;DHT22;25154;-33.684;151.102;2023-03-04T17:46:29;15.80;99.90
39453;DHT22;25154;-33.684;151.102;2023-03-04T17:51:34;15.70;99.90
39453;DHT22;25154;-33.684;151.102;2023-03-04T17:56:38;15.50;99.90
39453;DHT22;25154;-33.684;151.102;2023-03-04T18:01:42;15.40;99.90
39453;DHT22;25154;-33.684;151.102;2023-03-04T18:06:51;15.20;99.90
39453;DHT22;25154;-33.684;151.102;2023-03-04T18:12:23;15.40;99.90
39453;DHT22;25154;-33.684;151.102;2023-03-04T18:17:26;15.40;99.90
39453;DHT22;25154;-33.684;151.102;2023-03-04T18:22:30;15.30;99.90
39453;DHT22;25154;-33.684;151.102;2023-03-04T18:27:33;15.30;99.90
39453;DHT22;25154;-33.684;151.102;2023-03-04T18:32:36;15.30;99.90
39453;DHT22;25154;-33.684;151.102;2023-03-04T18:37:38;15.30;99.90
39453;DHT22;25154;-33.684;151.102;2023-03-04T18:42:41;15.20;99.90
39453;DHT22;25154;-33.684;151.102;2023-03-04T18:47:49;15.20;99.90
39453;DHT22;25154;-33.684;151.102;2023-03-04T18:52:55;15.20;99.90
39453;DHT22;25154;-33.684;151.102;2023-03-04T18:57:58;15.10;99.90
39453;DHT22;25154;-33.684;151.102;2023-03-04T19:03:08;15.10;99.90
39453;DHT22;25154;-33.684;151.102;2023-03-04T19:08:12;15.10;99.90
39453;DHT22;25154;-33.684;151.102;2023-03-04T19:13:14;15.00;99.90
39453;DHT22;25154;-33.684;151.102;2023-03-04T19:18:19;15.10;99.90
39453;DHT22;25154;-33.684;151.102;2023-03-04T19:23:22;15.10;99.90
39453;DHT22;25154;-33.684;151.102;2023-03-04T19:28:25;15.10;99.90
39453;DHT22;25154;-33.684;151.102;2023-03-04T19:33:28;15.10;99.90
39453;DHT22;25154;-33.684;151.102;2023-03-04T19:38:31;15.00;99.90
39453;DHT22;25154;-33.684;151.102;2023-03-04T19:43:34;14.90;99.90
39453;DHT22;25154;-33.684;151.102;2023-03-04T19:48:39;15.00;99.90
39453;DHT22;25154;-33.684;151.102;2023-03-04T19:53:42;15.10;99.90
39453;DHT22;25154;-33.684;151.102;2023-03-04T19:58:45;15.20;99.90
39453;DHT22;25154;-33.684;151.102;2023-03-04T20:03:49;15.10;99.90
39453;DHT22;25154;-33.684;151.102;2023-03-04T20:08:52;15.10;99.90
39453;DHT22;25154;-33.684;151.102;2023-03-04T20:13:55;15.10;99.90
39453;DHT22;25154;-33.684;151.102;2023-03-04T20:18:59;15.00;99.90
39453;DHT22;25154;-33.684;151.102;2023-03-04T20:24:03;15.10;99.90
39453;DHT22;25154;-33.684;151.102;2023-03-04T20:29:05;15.00;99.90
39453;DHT22;25154;-33.684;151.102;2023-03-04T20:34:08;15.10;99.90
39453;DHT22;25154;-33.684;151.102;2023-03-04T20:39:11;15.20;99.90
39453;DHT22;25154;-33.684;151.102;2023-03-04T20:44:14;15.40;99.90
39453;DHT22;25154;-33.684;151.102;2023-03-04T20:49:22;15.40;99.90
39453;DHT22;25154;-33.684;151.102;2023-03-04T20:54:25;15.50;99.90
39453;DHT22;25154;-33.684;151.102;2023-03-04T20:59:28;15.60;99.90
39453;DHT22;25154;-33.684;151.102;2023-03-04T21:04:35;15.80;99.90
39453;DHT22;25154;-33.684;151.102;2023-03-04T21:09:38;15.90;99.90
39453;DHT22;25154;-33.684;151.102;2023-03-04T21:14:41;16.20;99.90
39453;DHT22;25154;-33.684;151.102;2023-03-04T21:19:46;16.40;99.90
39453;DHT22;25154;-33.684;151.102;2023-03-04T21:24:48;16.50;99.90
39453;DHT22;25154;-33.684;151.102;2023-03-04T21:29:51;16.70;99.90
39453;DHT22;25154;-33.684;151.102;2023-03-04T21:34:55;16.90;99.90
39453;DHT22;25154;-33.684;151.102;2023-03-04T21:39:57;17.00;99.90
39453;DHT22;25154;-33.684;151.102;2023-03-04T21:45:02;17.20;99.90
39453;DHT22;25154;-33.684;151.102;2023-03-04T21:50:09;17.50;99.90
39453;DHT22;25154;-33.684;151.102;2023-03-04T21:55:12;17.80;99.90
39453;DHT22;25154;-33.684;151.102;2023-03-04T22:00:15;18.10;99.90
39453;DHT22;25154;-33.684;151.102;2023-03-04T22:05:18;18.40;99.90
39453;DHT22;25154;-33.684;151.102;2023-03-04T22:10:28;18.60;99.90
39453;DHT22;25154;-33.684;151.102;2023-03-04T22:15:42;18.70;99.90
39453;DHT22;25154;-33.684;151.102;2023-03-04T22:21:00;19.10;99.90
39453;DHT22;25154;-33.684;151.102;2023-03-04T22:26:15;19.30;99.90
39453;DHT22;25154;-33.684;151.102;2023-03-04T22:31:39;19.70;99.90
39453;DHT22;25154;-33.684;151.102;2023-03-04T22:36:45;20.10;99.90
39453;DHT22;25154;-33.684;151.102;2023-03-04T22:41:48;20.50;99.90
39453;DHT22;25154;-33.684;151.102;2023-03-04T22:46:51;21.10;99.90
39453;DHT22;25154;-33.684;151.102;2023-03-04T22:51:54;21.40;99.90
39453;DHT22;25154;-33.684;151.102;2023-03-04T22:56:57;21.80;99.90
39453;DHT22;25154;-33.684;151.102;2023-03-04T23:01:59;22.10;99.90
39453;DHT22;25154;-33.684;151.102;2023-03-04T23:07:02;22.40;99.90
39453;DHT22;25154;-33.684;151.102;2023-03-04T23:12:05;22.80;99.90
39453;DHT22;25154;-33.684;151.102;2023-03-04T23:17:07;23.10;99.90
39453;DHT22;25154;-33.684;151.102;2023-03-04T23:22:10;23.20;99.90
39453;DHT22;25154;-33.684;151.102;2023-03-04T23:27:12;23.50;99.90
39453;DHT22;25154;-33.684;151.102;2023-03-04T23:32:15;23.60;99.90
39453;DHT22;25154;-33.684;151.102;2023-03-04T23:37:18;23.80;99.90
39453;DHT22;25154;-33.684;151.102;2023-03-04T23:42:24;23.90;99.90
39453;DHT22;25154;-33.684;151.102;2023-03-04T23:47:26;24.20;99.90
39453;DHT22;25154;-33.684;151.102;2023-03-04T23:52:31;24.50;99.90
39453;DHT22;25154;-33.684;151.102;2023-03-04T23:57:35;24.70;99.90
